Time;durP1;ratioP1;P1;durP2;ratioP2;P2;SDS_P1;SDS_P2;PMS_P1;PMS_P2;Temp;Humidity;BMP_temperature;BMP_pressure;BME280_temperature;BME280_humidity;BME280_pressure;Samples;Min_cycle;Max_cycle;Signal;HPM_P1;HPM_P2
2023/05/15 00:01:24;;;;;;;;;;;;;;;21.55;30.16;98187.00;5055625;28;1236;-74
2023/05/15 00:03:50;;;;;;;;;;;;;;;21.44;30.48;98192.91;5039163;28;1948;-75
2023/05/15 00:06:16;;;;;;;;;;;;;;;21.61;30.12;98201.47;5038993;28;922;-74
2023/05/15 00:08:42;;;;;;;;;;;;;;;21.47;30.56;98186.38;5015724;28;1026;-74
2023/05/15 00:11:07;;;;;;;;;;;;;;;21.66;30.24;98187.56;5015732;28;1115;-75
2023/05/15 00:13:33;;;;;;;;;;;;;;;21.69;30.09;98192.34;4999253;28;994;-74
2023/05/15 00:16:00;;;;;;;;;;;;;;;22.14;29.59;98183.16;5016174;28;1019;-74
2023/05/15 00:18:26;;;;;;;;;;;;;;;21.94;29.99;98179.59;5016164;28;983;-74
2023/05/15 00:20:52;;;;;;;;;;;;;;;21.96;30.01;98179.94;5016222;28;1039;-74
2023/05/15 00:23:17;;;;;;;;;;;;;;;21.66;30.11;98176.25;5016033;28;1910;-74
2023/05/15 00:25:43;;;;;;;;;;;;;;;21.58;30.29;98186.13;5015418;28;1194;-75
2023/05/15 00:28:09;;;;;;;;;;;;;;;21.42;30.63;98194.59;5015922;28;978;-75
2023/05/15 00:30:34;;;;;;;;;;;;;;;21.44;30.76;98175.13;5016076;28;1104;-74
2023/05/15 00:33:00;;;;;;;;;;;;;;;21.28;30.97;98181.53;5028765;28;949;-74
2023/05/15 00:35:25;;;;;;;;;;;;;;;21.19;31.22;98172.84;5018820;28;1098;-74
2023/05/15 00:37:51;;;;;;;;;;;;;;;21.39;30.68;98170.00;5018829;28;997;-74
2023/05/15 00:40:20;;;;;;;;;;;;;;;21.42;30.92;98166.31;5048380;28;1047;-74
2023/05/15 00:42:46;;;;;;;;;;;;;;;21.45;30.62;98176.72;5058726;28;1905;-74
2023/05/15 00:45:12;;;;;;;;;;;;;;;21.55;30.65;98179.34;5035144;28;1056;-74
2023/05/15 00:47:37;;;;;;;;;;;;;;;21.48;30.33;98173.81;5002623;28;1159;-75
2023/05/15 00:50:03;;;;;;;;;;;;;;;21.61;30.28;98168.28;5002593;28;1510;-75
2023/05/15 00:52:28;;;;;;;;;;;;;;;22.05;30.08;98180.13;4995857;28;921;-74
2023/05/15 00:54:55;;;;;;;;;;;;;;;22.44;29.47;98178.34;4979467;28;1103;-74
2023/05/15 00:57:22;;;;;;;;;;;;;;;22.24;29.68;98175.63;4979962;28;1498;-74
2023/05/15 00:59:47;;;;;;;;;;;;;;;21.77;30.36;98171.13;4995728;28;1098;-74
2023/05/15 01:02:13;;;;;;;;;;;;;;;21.58;30.13;98175.59;4979404;28;1301;-74
2023/05/15 01:04:39;;;;;;;;;;;;;;;21.38;30.58;98171.25;4979396;28;1889;-74
2023/05/15 01:07:04;;;;;;;;;;;;;;;21.39;30.79;98165.13;4982691;28;1122;-74
2023/05/15 01:09:30;;;;;;;;;;;;;;;21.47;30.49;98162.94;5015028;28;1145;-75
2023/05/15 01:11:56;;;;;;;;;;;;;;;21.45;30.47;98157.72;5015117;28;1338;-74
2023/05/15 01:14:22;;;;;;;;;;;;;;;21.45;30.68;98159.75;5014973;28;1130;-75
2023/05/15 01:16:47;;;;;;;;;;;;;;;21.53;30.39;98155.53;5029889;28;1356;-74
2023/05/15 01:19:13;;;;;;;;;;;;;;;21.50;30.60;98150.72;5018370;28;1115;-74
2023/05/15 01:21:56;;;;;;;;;;;;;;;22.09;30.05;98155.34;5034840;28;986;-75
2023/05/15 01:24:36;;;;;;;;;;;;;;;22.16;29.80;98152.34;5018109;28;1995;-74
2023/05/15 01:27:08;;;;;;;;;;;;;;;21.90;29.85;98150.56;5014605;28;1242;-74
2023/05/15 01:29:40;;;;;;;;;;;;;;;21.44;30.60;98141.97;4995218;28;1354;-75
2023/05/15 01:32:08;;;;;;;;;;;;;;;21.27;31.00;98135.47;4978859;28;1097;-74
2023/05/15 01:34:42;;;;;;;;;;;;;;;21.40;30.68;98129.13;4994865;28;1181;-75
2023/05/15 01:37:08;;;;;;;;;;;;;;;21.45;30.49;98131.44;4977883;28;1228;-74
2023/05/15 01:39:34;;;;;;;;;;;;;;;21.43;30.42;98111.28;4975530;28;985;-74
2023/05/15 01:42:02;;;;;;;;;;;;;;;21.61;30.26;98105.19;4959331;28;1034;-74
2023/05/15 01:44:28;;;;;;;;;;;;;;;21.56;30.17;98092.34;4959408;28;1973;-75
2023/05/15 01:46:54;;;;;;;;;;;;;;;21.66;30.01;98091.28;4959403;28;1220;-75
2023/05/15 01:49:21;;;;;;;;;;;;;;;21.51;30.20;98090.06;4959232;28;1325;-74
2023/05/15 01:51:48;;;;;;;;;;;;;;;21.56;30.02;98081.03;4959663;28;1007;-75
2023/05/15 01:54:13;;;;;;;;;;;;;;;21.88;30.11;98085.06;4959133;28;1184;-74
2023/05/15 01:56:40;;;;;;;;;;;;;;;22.20;29.78;98096.34;4959332;28;1680;-75
2023/05/15 01:59:05;;;;;;;;;;;;;;;22.50;29.12;98097.16;4937474;29;1093;-75
2023/05/15 02:01:31;;;;;;;;;;;;;;;22.04;29.78;98087.88;4921007;29;1004;-75
2023/05/15 02:03:57;;;;;;;;;;;;;;;21.69;30.03;98083.94;4955685;28;2001;-75
2023/05/15 02:06:22;;;;;;;;;;;;;;;21.74;29.88;98070.03;4937668;28;1742;-74
2023/05/15 02:08:48;;;;;;;;;;;;;;;21.65;30.01;98078.34;4978242;28;982;-75
2023/05/15 02:11:14;;;;;;;;;;;;;;;21.21;30.96;98066.47;5028346;28;1209;-75
2023/05/15 02:13:39;;;;;;;;;;;;;;;21.17;31.06;98060.09;5004110;28;1198;-74
2023/05/15 02:16:05;;;;;;;;;;;;;;;21.23;30.90;98058.34;5036926;28;1098;-75
2023/05/15 02:18:31;;;;;;;;;;;;;;;21.20;30.73;98058.44;5037017;28;991;-74
2023/05/15 02:20:56;;;;;;;;;;;;;;;21.70;30.29;98066.50;5016915;28;1721;-74
2023/05/15 02:23:22;;;;;;;;;;;;;;;22.34;29.47;98070.47;5016836;28;1906;-75
2023/05/15 02:25:54;;;;;;;;;;;;;;;22.28;29.36;98077.94;5000562;28;1399;-75
2023/05/15 02:28:23;;;;;;;;;;;;;;;22.21;29.56;98072.44;4958571;28;1164;-75
2023/05/15 02:30:51;;;;;;;;;;;;;;;21.74;29.98;98070.03;4958461;28;961;-75
2023/05/15 02:33:19;;;;;;;;;;;;;;;21.42;30.57;98075.72;4958528;28;1054;-75
2023/05/15 02:35:48;;;;;;;;;;;;;;;21.23;30.63;98066.81;4971125;28;1011;-75
2023/05/15 02:38:18;;;;;;;;;;;;;;;21.44;30.23;98048.53;4975025;28;1239;-74
2023/05/15 02:40:44;;;;;;;;;;;;;;;22.19;29.57;98054.31;4977902;28;993;-74
2023/05/15 02:43:10;;;;;;;;;;;;;;;22.40;29.30;98047.22;4993825;28;1985;-75
2023/05/15 02:45:36;;;;;;;;;;;;;;;22.28;29.54;98049.56;4974533;28;1060;-74
2023/05/15 02:48:01;;;;;;;;;;;;;;;22.33;29.04;98049.03;4998707;28;1201;-74
2023/05/15 02:50:27;;;;;;;;;;;;;;;21.96;29.81;98052.47;5001407;28;1235;-74
2023/05/15 02:53:02;;;;;;;;;;;;;;;21.65;30.27;98049.25;5033796;28;971;-75
2023/05/15 02:55:28;;;;;;;;;;;;;;;21.46;30.53;98048.91;5017560;28;1188;-75
2023/05/15 02:57:54;;;;;;;;;;;;;;;21.68;29.80;98048.38;5033979;28;981;-75
2023/05/15 03:00:19;;;;;;;;;;;;;;;21.50;30.59;98060.13;4983663;28;1298;-75
2023/05/15 03:02:45;;;;;;;;;;;;;;;21.54;30.46;98061.63;4997825;28;1903;-75
2023/05/15 03:05:10;;;;;;;;;;;;;;;21.54;30.39;98050.31;4997791;28;1085;-74
2023/05/15 03:07:36;;;;;;;;;;;;;;;21.64;30.40;98048.44;4997784;28;1026;-74
2023/05/15 03:10:03;;;;;;;;;;;;;;;21.45;30.75;98047.34;4997793;28;1063;-74
2023/05/15 03:12:28;;;;;;;;;;;;;;;21.54;30.37;98046.69;4981647;28;1297;-75
2023/05/15 03:14:54;;;;;;;;;;;;;;;21.52;30.59;98052.00;5000936;28;1113;-75
2023/05/15 03:17:20;;;;;;;;;;;;;;;21.32;30.99;98037.94;5049393;28;1066;-75
2023/05/15 03:19:45;;;;;;;;;;;;;;;21.42;30.38;98047.41;5023898;28;1154;-74
2023/05/15 03:22:11;;;;;;;;;;;;;;;21.39;30.85;98042.63;5057112;28;1441;-75
2023/05/15 03:24:37;;;;;;;;;;;;;;;21.29;30.70;98050.91;5040323;28;1910;-74
2023/05/15 03:27:04;;;;;;;;;;;;;;;22.16;29.95;98055.97;5039995;28;963;-74
2023/05/15 03:29:29;;;;;;;;;;;;;;;22.26;29.83;98060.56;5039640;28;1663;-74
2023/05/15 03:31:55;;;;;;;;;;;;;;;22.02;29.99;98050.66;5040118;28;1127;-74
2023/05/15 03:34:20;;;;;;;;;;;;;;;21.66;30.68;98046.00;5023699;28;971;-75
2023/05/15 03:36:46;;;;;;;;;;;;;;;21.66;30.40;98051.66;5058892;28;1032;-75
2023/05/15 03:39:12;;;;;;;;;;;;;;;21.48;30.57;98066.25;5061200;28;818;-75
2023/05/15 03:41:38;;;;;;;;;;;;;;;21.45;30.52;98067.16;5077425;28;924;-74
2023/05/15 03:44:03;;;;;;;;;;;;;;;21.57;30.28;98055.09;5077529;28;1905;-75
2023/05/15 03:46:29;;;;;;;;;;;;;;;21.70;30.26;98057.19;5077522;28;1093;-74
2023/05/15 03:48:54;;;;;;;;;;;;;;;21.50;30.44;98060.13;5077396;28;916;-74
2023/05/15 03:51:21;;;;;;;;;;;;;;;21.52;30.51;98060.50;5077623;28;935;-75
2023/05/15 03:53:46;;;;;;;;;;;;;;;21.29;31.01;98067.09;5060739;28;1239;-75
2023/05/15 03:56:12;;;;;;;;;;;;;;;21.22;30.99;98062.41;5093112;28;1094;-75
2023/05/15 03:58:37;;;;;;;;;;;;;;;21.47;30.92;98078.03;5059416;28;921;-74
2023/05/15 04:01:03;;;;;;;;;;;;;;;22.17;30.46;98077.41;5075129;28;1124;-75
2023/05/15 04:03:28;;;;;;;;;;;;;;;22.58;29.57;98075.84;5075887;28;1903;-75
2023/05/15 04:05:54;;;;;;;;;;;;;;;22.14;29.95;98078.31;5042753;28;1816;-74
2023/05/15 04:08:20;;;;;;;;;;;;;;;21.94;30.30;98071.94;5059833;28;923;-74
2023/05/15 04:10:45;;;;;;;;;;;;;;;21.45;30.91;98072.00;5058995;28;1005;-74
2023/05/15 04:13:11;;;;;;;;;;;;;;;21.64;30.60;98068.28;5042629;28;1140;-75
2023/05/15 04:15:37;;;;;;;;;;;;;;;21.43;30.95;98066.78;5058990;28;1286;-75
2023/05/15 04:18:02;;;;;;;;;;;;;;;21.27;31.16;98070.38;5042526;28;1372;-74
2023/05/15 04:20:28;;;;;;;;;;;;;;;21.37;31.11;98079.06;5042602;28;1197;-74
2023/05/15 04:22:54;;;;;;;;;;;;;;;21.62;30.41;98076.44;5042426;28;1910;-75
2023/05/15 04:25:19;;;;;;;;;;;;;;;21.58;30.56;98089.88;5035536;28;1079;-74
2023/05/15 04:27:45;;;;;;;;;;;;;;;21.45;30.68;98086.13;5033737;28;932;-75
2023/05/15 04:30:11;;;;;;;;;;;;;;;21.52;30.83;98083.94;5039237;28;1044;-75
2023/05/15 04:32:37;;;;;;;;;;;;;;;21.56;30.78;98098.03;5038821;28;1031;-75
2023/05/15 04:35:08;;;;;;;;;;;;;;;21.49;30.94;98092.50;5055722;28;939;-74
2023/05/15 04:37:34;;;;;;;;;;;;;;;22.08;30.22;98091.41;5022953;28;1038;-75
2023/05/15 04:40:00;;;;;;;;;;;;;;;22.18;30.43;98084.69;5038530;28;1049;-75
2023/05/15 04:42:25;;;;;;;;;;;;;;;22.06;30.32;98082.53;5035301;28;927;-74
2023/05/15 04:44:52;;;;;;;;;;;;;;;21.62;31.09;98093.41;5018538;28;2001;-74
2023/05/15 04:47:17;;;;;;;;;;;;;;;21.45;31.10;98103.13;5002625;28;1019;-75
2023/05/15 04:49:43;;;;;;;;;;;;;;;21.67;30.70;98104.22;5002447;28;1191;-74
2023/05/15 04:52:08;;;;;;;;;;;;;;;21.48;30.79;98107.91;5002579;28;926;-75
2023/05/15 04:54:34;;;;;;;;;;;;;;;21.41;31.22;98113.75;5035029;28;1013;-75
2023/05/15 04:57:00;;;;;;;;;;;;;;;21.59;30.83;98119.78;5033882;28;2606;-75
2023/05/15 04:59:27;;;;;;;;;;;;;;;21.37;31.04;98107.38;5055102;28;1287;-74
2023/05/15 05:01:53;;;;;;;;;;;;;;;21.28;31.17;98105.91;5071523;28;956;-74
2023/05/15 05:04:19;;;;;;;;;;;;;;;21.51;31.17;98105.00;5031469;28;1898;-74
2023/05/15 05:06:47;;;;;;;;;;;;;;;21.95;30.62;98104.69;5015179;28;1212;-74
2023/05/15 05:09:12;;;;;;;;;;;;;;;22.02;30.59;98101.66;4999030;28;1020;-75
2023/05/15 05:11:42;;;;;;;;;;;;;;;21.94;30.38;98083.28;4998761;28;1070;-75
2023/05/15 05:14:10;;;;;;;;;;;;;;;21.84;30.55;98068.97;5054021;28;1040;-74
2023/05/15 05:16:36;;;;;;;;;;;;;;;21.62;30.82;98072.81;5041342;28;1233;-75
2023/05/15 05:19:01;;;;;;;;;;;;;;;21.47;30.96;98087.31;5024822;28;1230;-74
2023/05/15 05:21:27;;;;;;;;;;;;;;;21.60;30.43;98104.38;5041252;28;991;-74
2023/05/15 05:23:53;;;;;;;;;;;;;;;21.87;30.38;98111.81;5057466;28;1918;-74
2023/05/15 05:26:18;;;;;;;;;;;;;;;21.73;30.48;98090.31;5091312;28;1083;-74
2023/05/15 05:28:44;;;;;;;;;;;;;;;21.46;31.07;98076.44;5057912;28;944;-74
2023/05/15 05:31:09;;;;;;;;;;;;;;;21.50;30.89;98077.13;5041156;28;1060;-74
2023/05/15 05:33:35;;;;;;;;;;;;;;;21.40;31.19;98078.19;5041075;28;1159;-74
2023/05/15 05:36:01;;;;;;;;;;;;;;;21.51;30.80;98073.06;5057324;28;983;-75
2023/05/15 05:38:26;;;;;;;;;;;;;;;21.50;30.86;98074.28;5057336;28;1007;-74
2023/05/15 05:40:52;;;;;;;;;;;;;;;21.95;31.04;98079.22;5091076;28;1133;-75
2023/05/15 05:43:18;;;;;;;;;;;;;;;22.61;29.94;98074.94;5074025;28;1902;-74
2023/05/15 05:45:43;;;;;;;;;;;;;;;22.25;30.04;98080.84;5086915;28;1138;-74
2023/05/15 05:48:09;;;;;;;;;;;;;;;21.88;30.63;98068.88;5073917;28;1032;-75
2023/05/15 05:50:35;;;;;;;;;;;;;;;21.79;30.72;98077.19;5057342;28;1274;-74
2023/05/15 05:53:00;;;;;;;;;;;;;;;21.63;30.96;98078.00;5056945;28;1102;-74
2023/05/15 05:55:26;;;;;;;;;;;;;;;21.62;30.94;98084.91;5074314;28;929;-74
2023/05/15 05:57:51;;;;;;;;;;;;;;;21.68;30.74;98091.63;5090763;28;1082;-75
2023/05/15 06:00:17;;;;;;;;;;;;;;;21.55;30.88;98085.91;5073939;28;1789;-74
2023/05/15 06:02:43;;;;;;;;;;;;;;;21.22;31.46;98090.72;5074128;28;962;-74
2023/05/15 06:05:09;;;;;;;;;;;;;;;21.26;31.51;98099.91;5057060;28;1975;-74
2023/05/15 06:07:34;;;;;;;;;;;;;;;21.65;30.87;98101.00;5073675;28;1122;-74
2023/05/15 06:10:00;;;;;;;;;;;;;;;21.54;30.84;98104.09;5073737;28;1110;-75
2023/05/15 06:12:26;;;;;;;;;;;;;;;21.32;31.14;98089.69;5053773;28;1252;-74
2023/05/15 06:14:52;;;;;;;;;;;;;;;21.29;31.07;98101.84;5053553;28;1261;-74
2023/05/15 06:17:18;;;;;;;;;;;;;;;21.16;31.35;98103.78;5013764;28;1030;-74
2023/05/15 06:19:43;;;;;;;;;;;;;;;21.96;30.63;98097.78;5020445;28;1102;-75
2023/05/15 06:22:09;;;;;;;;;;;;;;;22.08;30.85;98097.06;5010358;28;1004;-75
2023/05/15 06:24:34;;;;;;;;;;;;;;;22.52;30.12;98103.16;5029870;28;1979;-75
2023/05/15 06:27:00;;;;;;;;;;;;;;;22.01;30.54;98105.75;5030112;28;1118;-74
2023/05/15 06:29:26;;;;;;;;;;;;;;;21.87;30.63;98098.44;5013941;28;1041;-75
2023/05/15 06:31:51;;;;;;;;;;;;;;;21.76;30.75;98095.88;5030104;28;1039;-74
2023/05/15 06:34:17;;;;;;;;;;;;;;;21.50;31.04;98094.09;5013584;28;934;-74
2023/05/15 06:36:42;;;;;;;;;;;;;;;21.42;31.16;98087.84;5050010;28;919;-75
2023/05/15 06:39:11;;;;;;;;;;;;;;;21.73;30.85;98093.94;5033226;28;968;-75
2023/05/15 06:41:36;;;;;;;;;;;;;;;21.81;30.52;98098.19;5049607;28;946;-75
2023/05/15 06:44:02;;;;;;;;;;;;;;;21.36;31.35;98100.94;5063732;28;1901;-74
2023/05/15 06:46:28;;;;;;;;;;;;;;;21.53;31.13;98087.56;5090292;28;994;-75
2023/05/15 06:48:53;;;;;;;;;;;;;;;21.54;30.83;98089.94;5052746;28;1357;-75
2023/05/15 06:51:19;;;;;;;;;;;;;;;21.70;30.64;98103.31;5068050;28;1206;-74
2023/05/15 06:53:45;;;;;;;;;;;;;;;21.64;30.55;98105.09;5073196;28;1128;-75
2023/05/15 06:56:10;;;;;;;;;;;;;;;21.65;30.75;98097.38;5041763;28;1107;-74
2023/05/15 06:58:36;;;;;;;;;;;;;;;22.22;30.45;98087.41;5013076;28;910;-74
2023/05/15 07:01:05;;;;;;;;;;;;;;;22.13;30.83;98090.91;4977628;28;1225;-74
2023/05/15 07:03:31;;;;;;;;;;;;;;;22.04;30.60;98082.19;4993611;28;1906;-74
2023/05/15 07:05:57;;;;;;;;;;;;;;;21.73;31.36;98079.78;4993713;28;1018;-74
2023/05/15 07:08:22;;;;;;;;;;;;;;;21.50;31.46;98068.63;4993755;28;1123;-74
2023/05/15 07:14:22;;;;;;;;;;;;;;;21.70;30.76;98068.53;4993562;28;1238;-74
2023/05/15 07:16:48;;;;;;;;;;;;;;;21.42;31.53;98070.84;4977707;28;1246;-74
2023/05/15 07:19:16;;;;;;;;;;;;;;;21.52;31.11;98066.16;4981907;28;966;-74
2023/05/15 07:21:41;;;;;;;;;;;;;;;21.35;31.22;98058.91;4997343;28;979;-74
2023/05/15 07:24:07;;;;;;;;;;;;;;;21.16;31.53;98058.53;5013332;28;1981;-75
2023/05/15 07:26:33;;;;;;;;;;;;;;;21.49;30.96;98067.84;4996909;28;935;-75
2023/05/15 07:28:58;;;;;;;;;;;;;;;21.50;31.16;98062.97;5006394;28;1248;-74
2023/05/15 07:31:24;;;;;;;;;;;;;;;21.42;30.96;98075.72;5036161;28;989;-74
2023/05/15 07:33:49;;;;;;;;;;;;;;;21.77;30.97;98086.16;5036848;28;967;-74
2023/05/15 07:36:15;;;;;;;;;;;;;;;22.16;30.86;98084.31;5038585;28;1008;-74
2023/05/15 07:38:41;;;;;;;;;;;;;;;22.57;30.04;98074.25;5069311;28;1002;-75
2023/05/15 07:41:06;;;;;;;;;;;;;;;22.22;30.21;98068.34;5077395;28;936;-74
2023/05/15 07:43:32;;;;;;;;;;;;;;;21.76;31.15;98061.91;5077570;28;1967;-74
2023/05/15 07:45:57;;;;;;;;;;;;;;;21.46;31.55;98059.44;5076284;28;1153;-74
2023/05/15 07:48:23;;;;;;;;;;;;;;;21.49;31.36;98058.53;5043160;28;983;-75
2023/05/15 07:50:51;;;;;;;;;;;;;;;21.48;31.13;98023.78;5042870;28;991;-76
2023/05/15 07:53:16;;;;;;;;;;;;;;;21.63;30.93;98061.03;5059697;28;1036;-74
2023/05/15 07:55:42;;;;;;;;;;;;;;;21.74;30.77;98053.03;5016397;28;961;-74
2023/05/15 07:58:08;;;;;;;;;;;;;;;21.42;31.18;98050.25;4983911;28;1117;-74
2023/05/15 08:00:34;;;;;;;;;;;;;;;21.74;30.74;98053.03;5000176;28;948;-74
2023/05/15 08:02:59;;;;;;;;;;;;;;;21.38;31.26;98060.84;4983508;28;1914;-74
2023/05/15 08:05:25;;;;;;;;;;;;;;;21.55;30.77;98062.44;5016233;28;1072;-75
2023/05/15 08:07:51;;;;;;;;;;;;;;;21.47;31.12;98066.69;4999784;28;1024;-75
2023/05/15 08:10:16;;;;;;;;;;;;;;;21.44;31.00;98065.53;5016405;28;972;-74
2023/05/15 08:12:46;;;;;;;;;;;;;;;21.26;31.32;98073.66;4977006;28;1035;-74
2023/05/15 08:15:11;;;;;;;;;;;;;;;21.37;31.34;98070.59;4976758;28;1090;-74
2023/05/15 08:17:37;;;;;;;;;;;;;;;21.54;30.82;98084.28;4991739;28;1016;-75
2023/05/15 08:20:03;;;;;;;;;;;;;;;21.39;31.20;98082.25;4980364;28;948;-75
2023/05/15 08:22:29;;;;;;;;;;;;;;;22.10;30.71;98075.56;4980074;28;957;-74
2023/05/15 08:24:55;;;;;;;;;;;;;;;22.57;30.22;98068.59;4996182;28;1898;-75
2023/05/15 08:27:21;;;;;;;;;;;;;;;22.43;30.17;98074.66;4980039;28;1226;-76
2023/05/15 08:29:46;;;;;;;;;;;;;;;21.99;30.79;98062.91;4996208;28;996;-76
2023/05/15 08:32:12;;;;;;;;;;;;;;;21.82;31.01;98062.94;4984585;28;995;-75
2023/05/15 08:34:37;;;;;;;;;;;;;;;21.77;31.08;98068.38;5011927;28;987;-75
2023/05/15 08:37:03;;;;;;;;;;;;;;;21.66;31.01;98067.81;4979704;28;932;-75
2023/05/15 08:39:29;;;;;;;;;;;;;;;21.35;31.60;98058.91;5028256;28;1013;-76
2023/05/15 08:41:54;;;;;;;;;;;;;;;21.49;31.43;98055.72;4996048;28;981;-76
2023/05/15 08:44:20;;;;;;;;;;;;;;;21.33;31.53;98051.66;5041563;28;1968;-76
2023/05/15 08:46:46;;;;;;;;;;;;;;;21.32;31.58;98047.22;5038229;28;906;-75
2023/05/15 08:49:46;;;;;;;;;;;;;;;21.65;30.97;98052.06;5038383;28;1046;-75
2023/05/15 08:52:12;;;;;;;;;;;;;;;21.57;30.93;98048.66;5035771;28;983;-76
2023/05/15 08:54:39;;;;;;;;;;;;;;;21.42;31.29;98041.75;5018545;28;1235;-76
2023/05/15 08:57:04;;;;;;;;;;;;;;;21.98;30.96;98030.97;5002545;28;1075;-76
2023/05/15 08:59:30;;;;;;;;;;;;;;;22.35;30.58;98023.84;5018772;28;1003;-75
2023/05/15 09:01:55;;;;;;;;;;;;;;;22.54;30.17;98035.47;5018458;28;1056;-76
2023/05/15 09:04:21;;;;;;;;;;;;;;;21.91;31.05;98027.50;5019007;28;1927;-75
2023/05/15 09:06:47;;;;;;;;;;;;;;;21.63;31.53;98018.53;5018077;28;1245;-76
2023/05/15 09:09:12;;;;;;;;;;;;;;;21.51;31.38;98019.28;5018198;28;1014;-76
2023/05/15 09:11:43;;;;;;;;;;;;;;;21.54;31.32;98038.19;5018598;28;1057;-76
2023/05/15 09:14:08;;;;;;;;;;;;;;;21.47;31.55;98032.72;5018099;28;1374;-76
2023/05/15 09:16:34;;;;;;;;;;;;;;;21.70;30.86;98041.00;5014595;28;1055;-75
2023/05/15 09:18:59;;;;;;;;;;;;;;;21.54;31.17;98049.53;5014845;28;1434;-75
2023/05/15 09:21:26;;;;;;;;;;;;;;;21.64;31.10;98047.66;4998444;28;1116;-75
2023/05/15 09:23:52;;;;;;;;;;;;;;;21.55;30.97;98045.44;5014342;28;1922;-75
2023/05/15 09:26:17;;;;;;;;;;;;;;;21.61;31.01;98032.38;5023685;28;981;-76
2023/05/15 09:28:43;;;;;;;;;;;;;;;21.59;31.00;98044.13;5014611;28;1161;-76
2023/05/15 09:31:09;;;;;;;;;;;;;;;21.50;31.28;98038.31;5014854;28;1305;-76
2023/05/15 09:33:35;;;;;;;;;;;;;;;21.36;31.42;98037.88;4998217;28;1172;-76
2023/05/15 09:36:01;;;;;;;;;;;;;;;21.39;31.43;98045.47;5014676;28;1011;-76
2023/05/15 09:38:27;;;;;;;;;;;;;;;21.31;31.34;98042.03;5028971;28;1093;-75
2023/05/15 09:41:02;;;;;;;;;;;;;;;22.10;30.77;98035.91;5037681;28;1099;-76
2023/05/15 09:43:28;;;;;;;;;;;;;;;22.48;30.42;98031.56;5020830;28;1988;-75
2023/05/15 09:45:54;;;;;;;;;;;;;;;22.43;30.14;98027.25;4998099;28;1198;-75
2023/05/15 09:48:20;;;;;;;;;;;;;;;21.84;31.34;98017.97;5017411;28;1308;-75
2023/05/15 09:50:46;;;;;;;;;;;;;;;21.89;31.04;98024.34;5037486;28;922;-76
2023/05/15 09:53:12;;;;;;;;;;;;;;;21.83;31.12;98022.03;5020928;28;1146;-76
2023/05/15 09:55:38;;;;;;;;;;;;;;;21.63;31.37;98018.53;5037731;28;939;-76
2023/05/15 09:58:05;;;;;;;;;;;;;;;21.91;30.58;98021.84;5036472;28;1524;-76
2023/05/15 10:00:31;;;;;;;;;;;;;;;21.77;30.74;98018.16;5037192;28;1559;-75
2023/05/15 10:02:57;;;;;;;;;;;;;;;21.78;30.83;98007.63;5037557;28;1105;-76
2023/05/15 10:05:25;;;;;;;;;;;;;;;21.49;31.19;97996.25;5020732;28;1898;-76
2023/05/15 10:07:53;;;;;;;;;;;;;;;21.89;30.75;98007.34;5037171;28;937;-75
2023/05/15 10:10:18;;;;;;;;;;;;;;;21.63;31.07;97995.91;5037088;28;1023;-76
2023/05/15 10:12:44;;;;;;;;;;;;;;;21.62;30.89;98011.31;5037136;28;1229;-76
2023/05/15 10:15:10;;;;;;;;;;;;;;;21.70;30.62;98007.03;5037175;28;1085;-75
2023/05/15 10:17:35;;;;;;;;;;;;;;;21.54;30.91;98009.88;5065213;28;2308;-75
2023/05/15 10:20:01;;;;;;;;;;;;;;;21.49;31.02;98004.75;5097008;28;1019;-76
2023/05/15 10:22:29;;;;;;;;;;;;;;;21.50;30.99;98000.69;5080466;28;1146;-76
2023/05/15 10:24:58;;;;;;;;;;;;;;;21.41;30.97;98000.53;5080740;28;1984;-76
2023/05/15 10:27:23;;;;;;;;;;;;;;;21.29;31.30;98005.63;5097270;28;1145;-75
2023/05/15 10:29:49;;;;;;;;;;;;;;;21.71;30.44;97997.31;5097374;28;980;-76
2023/05/15 10:32:15;;;;;;;;;;;;;;;21.63;30.53;98001.56;5080464;28;1149;-76
2023/05/15 10:34:40;;;;;;;;;;;;;;;21.53;30.87;97996.97;5080318;28;1303;-75
2023/05/15 10:37:06;;;;;;;;;;;;;;;22.03;30.74;98001.28;5080572;28;1117;-75
2023/05/15 10:39:31;;;;;;;;;;;;;;;22.32;30.49;98019.06;5097254;28;1116;-76
2023/05/15 10:41:57;;;;;;;;;;;;;;;22.53;30.32;98016.84;5063924;28;1306;-75
2023/05/15 10:44:23;;;;;;;;;;;;;;;21.71;31.29;98014.31;5096827;28;1906;-75
2023/05/15 10:46:48;;;;;;;;;;;;;;;21.93;30.87;98019.38;5080409;28;1239;-76
2023/05/15 10:49:14;;;;;;;;;;;;;;;21.83;31.14;98012.75;5113907;28;1007;-75
2023/05/15 10:51:40;;;;;;;;;;;;;;;21.49;31.43;98001.94;5060926;28;1654;-76
2023/05/15 10:54:05;;;;;;;;;;;;;;;21.46;31.69;98002.84;5056626;28;1267;-76
2023/05/15 10:56:36;;;;;;;;;;;;;;;21.51;31.43;98010.78;5056529;28;1495;-75
2023/05/15 10:59:06;;;;;;;;;;;;;;;21.55;31.20;98011.47;5056781;28;1241;-75
2023/05/15 11:01:32;;;;;;;;;;;;;;;21.05;31.02;97930.69;5056938;28;970;-76
2023/05/15 11:04:03;;;;;;;;;;;;;;;21.67;30.96;98007.94;5056591;28;1953;-76
2023/05/15 11:06:32;;;;;;;;;;;;;;;21.62;30.88;98002.81;5073196;28;1501;-76
2023/05/15 11:09:16;;;;;;;;;;;;;;;21.55;31.21;97995.31;5040780;28;1540;-76
2023/05/15 11:11:51;;;;;;;;;;;;;;;21.44;31.22;97994.75;5077159;28;1000;-76
2023/05/15 11:14:17;;;;;;;;;;;;;;;21.95;31.35;97988.56;5077207;28;1044;-76
2023/05/15 11:16:52;;;;;;;;;;;;;;;22.32;30.83;97996.38;5043715;28;1089;-75
2023/05/15 11:19:24;;;;;;;;;;;;;;;21.88;31.48;97997.25;5076991;28;1050;-76
2023/05/15 11:21:59;;;;;;;;;;;;;;;21.94;30.98;97992.63;5073626;28;1445;-76
2023/05/15 11:24:31;;;;;;;;;;;;;;;21.74;31.50;97992.78;5056493;28;1910;-76
2023/05/15 11:27:00;;;;;;;;;;;;;;;21.50;31.54;98004.34;5056683;28;1265;-76
2023/05/15 11:29:26;;;;;;;;;;;;;;;21.65;31.42;97993.41;5086232;28;1310;-75
2023/05/15 11:31:51;;;;;;;;;;;;;;;21.69;30.93;97999.78;5060229;28;1155;-75
2023/05/15 11:34:30;;;;;;;;;;;;;;;21.87;30.93;97992.84;5060006;28;965;-77
2023/05/15 11:36:57;;;;;;;;;;;;;;;21.56;31.33;97987.59;5060323;28;1167;-76
2023/05/15 11:39:23;;;;;;;;;;;;;;;21.33;31.84;97989.38;5060230;28;934;-76
2023/05/15 11:41:49;;;;;;;;;;;;;;;21.43;31.69;97989.56;5060079;28;1076;-75
2023/05/15 11:44:21;;;;;;;;;;;;;;;21.64;30.97;97986.16;5059790;28;1910;-75
2023/05/15 11:46:47;;;;;;;;;;;;;;;21.39;31.32;97994.50;5059803;28;1024;-75
2023/05/15 11:49:14;;;;;;;;;;;;;;;21.56;31.11;97984.78;5059573;28;999;-76
2023/05/15 11:51:42;;;;;;;;;;;;;;;21.53;31.32;97985.66;5075880;28;985;-75
2023/05/15 11:54:09;;;;;;;;;;;;;;;21.57;31.13;97975.03;5043037;28;941;-76
2023/05/15 11:56:34;;;;;;;;;;;;;;;21.26;31.65;97978.22;5059449;28;1015;-76
2023/05/15 11:59:01;;;;;;;;;;;;;;;21.65;30.93;97973.56;5056089;28;898;-76
2023/05/15 12:01:28;;;;;;;;;;;;;;;21.49;31.21;97973.63;5056269;28;941;-76
2023/05/15 12:03:53;;;;;;;;;;;;;;;21.58;30.79;97970.94;5055887;28;1922;-76
2023/05/15 12:06:19;;;;;;;;;;;;;;;22.00;30.87;97968.16;5056026;28;937;-76
2023/05/15 12:08:49;;;;;;;;;;;;;;;22.44;30.63;97965.72;5055908;28;955;-75
2023/05/15 12:11:14;;;;;;;;;;;;;;;22.40;30.90;97967.84;5039271;28;1113;-76
2023/05/15 12:13:40;;;;;;;;;;;;;;;22.23;30.71;97964.31;5038920;28;1123;-76
2023/05/15 12:16:05;;;;;;;;;;;;;;;21.91;31.09;97960.31;5019273;28;1127;-75
2023/05/15 12:18:31;;;;;;;;;;;;;;;21.73;31.32;97965.69;5019261;28;988;-75
2023/05/15 12:20:57;;;;;;;;;;;;;;;21.93;30.91;97957.84;4998801;28;948;-76
2023/05/15 12:23:23;;;;;;;;;;;;;;;21.78;31.01;97946.13;4984648;28;1910;-76
2023/05/15 12:25:49;;;;;;;;;;;;;;;21.58;31.29;97960.41;4960912;28;1427;-75
2023/05/15 12:28:15;;;;;;;;;;;;;;;21.68;31.00;97958.53;4960936;28;999;-76
2023/05/15 12:30:41;;;;;;;;;;;;;;;21.69;30.74;97965.78;4961019;28;1052;-76
2023/05/15 12:33:06;;;;;;;;;;;;;;;21.58;31.22;97965.28;4960916;28;939;-75
2023/05/15 12:35:33;;;;;;;;;;;;;;;21.63;31.00;97970.41;4978075;28;1305;-75
2023/05/15 12:37:59;;;;;;;;;;;;;;;21.56;31.14;97973.44;5035390;28;923;-75
2023/05/15 12:40:25;;;;;;;;;;;;;;;21.61;31.21;97970.06;5002496;28;1261;-76
2023/05/15 12:42:55;;;;;;;;;;;;;;;21.37;31.46;97969.50;5019056;28;978;-76
2023/05/15 12:45:21;;;;;;;;;;;;;;;21.33;31.69;97966.75;5015120;28;1930;-76
2023/05/15 12:47:47;;;;;;;;;;;;;;;21.45;31.27;97973.72;5014493;28;966;-75
2023/05/15 12:50:12;;;;;;;;;;;;;;;21.56;31.26;97979.09;5018665;28;1217;-76
2023/05/15 12:52:39;;;;;;;;;;;;;;;21.38;31.52;97975.94;5051040;28;1107;-76
2023/05/15 12:55:04;;;;;;;;;;;;;;;21.69;30.99;97967.81;5038438;28;1012;-75
2023/05/15 12:57:30;;;;;;;;;;;;;;;21.47;31.31;97964.78;5054888;28;964;-75
2023/05/15 12:59:56;;;;;;;;;;;;;;;21.61;31.13;97966.44;5038674;28;1109;-75